createdAt,value
2023-04-16T00:01:43.294Z,40.75
2023-04-16T00:04:12.111Z,41.00
2023-04-16T00:06:40.853Z,40.78
2023-04-16T00:09:09.528Z,40.73
2023-04-16T00:11:38.277Z,40.86
2023-04-16T00:14:07.008Z,40.95
2023-04-16T00:16:39.088Z,41.02
2023-04-16T00:19:10.113Z,41.12
2023-04-16T00:21:39.625Z,41.36
2023-04-16T00:24:11.561Z,41.40
2023-04-16T00:26:58.841Z,41.45
2023-04-16T00:29:29.162Z,41.35
2023-04-16T00:32:00.563Z,41.41
2023-04-16T00:34:29.243Z,41.57
2023-04-16T00:36:59.013Z,41.70
2023-04-16T00:39:27.685Z,41.94
2023-04-16T00:41:56.345Z,41.82
2023-04-16T00:44:24.962Z,41.97
2023-04-16T00:46:55.595Z,42.03
2023-04-16T00:49:26.353Z,42.05
2023-04-16T00:51:55.049Z,41.98
2023-04-16T00:54:26.472Z,42.09
2023-04-16T00:56:57.626Z,42.22
2023-04-16T00:59:30.020Z,42.37
2023-04-16T01:02:02.980Z,42.73
2023-04-16T01:04:43.089Z,42.79
2023-04-16T01:07:12.594Z,42.81
2023-04-16T01:09:43.924Z,42.95
2023-04-16T01:12:20.424Z,42.88
2023-04-16T01:14:51.685Z,43.14
2023-04-16T01:17:23.245Z,43.03
2023-04-16T01:19:55.308Z,43.21
2023-04-16T01:22:33.412Z,43.30
2023-04-16T01:25:03.299Z,43.44
2023-04-16T01:27:32.585Z,43.56
2023-04-16T01:30:01.156Z,43.49
2023-04-16T01:32:41.406Z,43.59
2023-04-16T01:35:10.275Z,43.71
2023-04-16T01:37:40.277Z,43.58
2023-04-16T01:40:10.228Z,43.73
2023-04-16T01:42:39.417Z,43.68
2023-04-16T01:45:09.637Z,43.85
2023-04-16T01:47:38.436Z,43.97
2023-04-16T01:50:08.720Z,43.84
2023-04-16T01:52:37.340Z,43.83
2023-04-16T01:55:08.989Z,44.07
2023-04-16T01:57:37.618Z,44.19
2023-04-16T02:00:08.565Z,44.35
2023-04-16T02:02:47.384Z,44.00
2023-04-16T02:05:22.249Z,44.25
2023-04-16T02:07:50.883Z,44.81
2023-04-16T02:10:20.909Z,44.42
2023-04-16T02:12:49.946Z,44.23
2023-04-16T02:15:18.805Z,44.52
2023-04-16T02:17:48.974Z,44.72
2023-04-16T02:20:18.234Z,44.78
2023-04-16T02:22:55.172Z,45.15
2023-04-16T02:25:27.272Z,45.17
2023-04-16T02:27:57.722Z,45.09
2023-04-16T02:30:41.124Z,45.23
2023-04-16T02:33:12.923Z,45.11
2023-04-16T02:35:49.589Z,45.22
2023-04-16T02:38:18.266Z,44.68
2023-04-16T02:40:48.269Z,44.89
2023-04-16T02:43:18.282Z,45.26
2023-04-16T02:45:47.110Z,45.14
2023-04-16T02:48:15.887Z,45.21
2023-04-16T02:50:44.437Z,45.51
2023-04-16T02:53:13.076Z,45.23
2023-04-16T02:55:41.669Z,45.45
2023-04-16T02:58:11.638Z,45.19
2023-04-16T03:00:40.271Z,45.17
2023-04-16T03:03:08.982Z,45.42
2023-04-16T03:05:39.686Z,45.13
2023-04-16T03:08:09.238Z,45.29
2023-04-16T03:10:38.007Z,45.50
2023-04-16T03:13:06.803Z,45.45
2023-04-16T03:15:36.894Z,45.54
2023-04-16T03:18:05.625Z,45.24
2023-04-16T03:20:34.776Z,45.26
2023-04-16T03:23:03.335Z,45.42
2023-04-16T03:25:31.975Z,45.45
2023-04-16T03:28:01.014Z,45.28
2023-04-16T03:30:29.698Z,45.12
2023-04-16T03:32:59.640Z,45.32
2023-04-16T03:35:28.534Z,45.34
2023-04-16T03:37:57.379Z,45.16
2023-04-16T03:40:26.584Z,45.17
2023-04-16T03:42:55.836Z,45.29
2023-04-16T03:45:25.058Z,45.47
2023-04-16T03:47:54.804Z,45.53
2023-04-16T03:50:27.542Z,45.52
2023-04-16T03:52:56.401Z,45.32
2023-04-16T03:55:25.622Z,45.03
2023-04-16T03:57:54.746Z,45.15
2023-04-16T04:00:23.696Z,45.09
2023-04-16T04:03:11.539Z,45.16
2023-04-16T04:06:01.000Z,45.07
2023-04-16T04:08:31.996Z,44.99
2023-04-16T04:11:00.572Z,45.04
2023-04-16T04:13:29.823Z,44.61
2023-04-16T04:15:59.974Z,44.30
2023-04-16T04:18:29.689Z,43.95
2023-04-16T04:20:59.820Z,44.22
2023-04-16T04:23:31.677Z,44.27
2023-04-16T04:26:03.831Z,44.20
2023-04-16T04:28:33.127Z,44.05
2023-04-16T04:31:02.698Z,44.14
2023-04-16T04:33:32.736Z,43.88
2023-04-16T04:36:02.821Z,44.19
2023-04-16T04:38:31.783Z,44.20
2023-04-16T04:41:00.951Z,43.90
2023-04-16T04:43:33.910Z,43.90
2023-04-16T04:46:02.610Z,43.95
2023-04-16T04:48:32.488Z,43.98
2023-04-16T04:51:05.281Z,43.95
2023-04-16T04:53:34.317Z,43.81
2023-04-16T04:56:12.437Z,43.73
2023-04-16T04:58:42.547Z,43.75
2023-04-16T05:01:11.318Z,43.68
2023-04-16T05:03:40.114Z,43.90
2023-04-16T05:06:10.147Z,43.72
2023-04-16T05:08:38.796Z,44.06
2023-04-16T05:11:07.455Z,43.79
2023-04-16T05:13:36.183Z,43.69
2023-04-16T05:16:04.928Z,43.30
2023-04-16T05:18:33.524Z,43.52
2023-04-16T05:21:02.197Z,42.99
2023-04-16T05:23:32.366Z,43.09
2023-04-16T05:26:00.919Z,43.00
2023-04-16T05:28:29.694Z,43.00
2023-04-16T05:30:58.329Z,42.81
2023-04-16T05:33:26.967Z,42.68
2023-04-16T05:35:55.850Z,42.83
2023-04-16T05:38:24.505Z,42.55
2023-04-16T05:40:54.580Z,42.36
2023-04-16T05:43:23.154Z,42.23
2023-04-16T05:45:51.912Z,42.32
2023-04-16T05:48:21.155Z,42.06
2023-04-16T05:50:51.422Z,41.98
2023-04-16T05:53:20.254Z,42.05
2023-04-16T05:55:49.047Z,41.94
2023-04-16T05:58:19.145Z,41.76
2023-04-16T06:00:47.862Z,41.92
2023-04-16T06:03:16.697Z,42.20
2023-04-16T06:05:46.128Z,41.45
2023-04-16T06:08:14.799Z,41.36
2023-04-16T06:10:43.508Z,41.40
2023-04-16T06:13:12.164Z,41.25
2023-04-16T06:15:42.202Z,40.83
2023-04-16T06:18:10.974Z,40.67
2023-04-16T06:20:39.713Z,40.60
2023-04-16T06:23:08.402Z,40.57
2023-04-16T06:25:37.144Z,40.25
2023-04-16T06:28:06.154Z,40.37
2023-04-16T06:30:35.357Z,40.20
2023-04-16T06:33:05.917Z,40.13
2023-04-16T06:35:34.573Z,39.93
2023-04-16T06:38:03.247Z,39.97
2023-04-16T06:40:31.944Z,39.86
2023-04-16T06:43:01.246Z,39.82
2023-04-16T06:45:30.061Z,39.70
2023-04-16T06:48:01.900Z,39.43
2023-04-16T06:50:33.562Z,39.19
2023-04-16T06:53:14.719Z,38.91
2023-04-16T06:55:44.949Z,39.13
2023-04-16T06:58:20.010Z,38.77
2023-04-16T07:00:54.310Z,38.69
2023-04-16T07:03:52.008Z,38.56
2023-04-16T07:06:33.359Z,38.67
2023-04-16T07:09:04.365Z,38.69
2023-04-16T07:11:34.354Z,38.32
2023-04-16T07:14:07.509Z,38.33
2023-04-16T07:16:37.811Z,38.27
2023-04-16T07:19:27.481Z,38.35
2023-04-16T07:21:59.094Z,38.18
2023-04-16T07:24:31.658Z,38.12
2023-04-16T07:27:04.714Z,37.92
2023-04-16T07:29:35.905Z,38.02
2023-04-16T07:32:05.491Z,38.06
2023-04-16T07:34:38.300Z,38.19
2023-04-16T07:37:11.104Z,38.35
2023-04-16T07:39:42.803Z,38.13
2023-04-16T07:42:11.443Z,37.84
2023-04-16T07:44:41.210Z,37.89
2023-04-16T07:47:09.778Z,37.94
2023-04-16T07:49:38.436Z,38.01
2023-04-16T07:52:08.400Z,37.85
2023-04-16T07:54:37.008Z,38.03
2023-04-16T07:57:05.902Z,38.07
2023-04-16T07:59:34.604Z,37.87
2023-04-16T08:02:03.401Z,37.84
2023-04-16T08:04:32.226Z,37.70
2023-04-16T08:07:00.896Z,37.99
2023-04-16T08:09:30.979Z,38.03
2023-04-16T08:12:01.178Z,38.69
2023-04-16T08:14:29.893Z,38.38
2023-04-16T08:16:58.460Z,38.04
2023-04-16T08:19:27.066Z,37.79
2023-04-16T08:21:57.792Z,37.67
2023-04-16T08:24:26.647Z,37.87
2023-04-16T08:27:02.431Z,37.73
2023-04-16T08:29:40.153Z,37.75
2023-04-16T08:32:10.210Z,37.76
2023-04-16T08:34:39.041Z,37.98
2023-04-16T08:37:07.671Z,37.79
2023-04-16T08:39:36.468Z,37.37
2023-04-16T08:42:13.253Z,37.60
2023-04-16T08:44:49.578Z,37.27
2023-04-16T08:47:18.936Z,36.64
2023-04-16T08:49:47.876Z,36.72
2023-04-16T08:52:21.331Z,36.51
2023-04-16T08:54:59.919Z,36.05
2023-04-16T08:57:39.991Z,36.09
2023-04-16T09:00:11.031Z,35.95
2023-04-16T09:02:40.641Z,35.61
2023-04-16T09:05:13.800Z,35.25
2023-04-16T09:07:44.123Z,35.78
2023-04-16T09:10:17.237Z,35.23
2023-04-16T09:12:47.375Z,35.32
2023-04-16T09:15:16.018Z,35.25
2023-04-16T09:17:44.551Z,35.06
2023-04-16T09:20:13.884Z,34.75
2023-04-16T09:22:42.687Z,34.90
2023-04-16T09:25:12.612Z,34.62
2023-04-16T09:27:41.708Z,34.59
2023-04-16T09:30:26.228Z,34.20
2023-04-16T09:33:18.074Z,33.89
2023-04-16T09:35:56.516Z,34.09
2023-04-16T09:38:58.339Z,33.99
2023-04-16T09:41:30.055Z,33.81
2023-04-16T09:44:00.600Z,34.15
2023-04-16T09:46:35.255Z,33.80
2023-04-16T09:49:10.701Z,33.82
2023-04-16T09:51:42.013Z,33.60
2023-04-16T09:54:11.287Z,33.80
2023-04-16T09:56:43.749Z,32.64
2023-04-16T09:59:19.282Z,31.82
2023-04-16T10:01:50.580Z,31.47
2023-04-16T10:04:19.460Z,31.44
2023-04-16T10:07:05.551Z,31.43
2023-04-16T10:09:38.540Z,31.02
2023-04-16T10:12:08.029Z,31.18
2023-04-16T10:14:37.184Z,31.15
2023-04-16T10:17:07.866Z,31.15
2023-04-16T10:19:37.341Z,31.55
2023-04-16T10:22:06.734Z,31.59
2023-04-16T10:24:36.801Z,31.44
2023-04-16T10:27:05.556Z,30.96
2023-04-16T10:29:35.297Z,31.14
2023-04-16T10:32:07.341Z,31.20
2023-04-16T10:34:37.307Z,30.94
2023-04-16T10:37:05.895Z,30.79
2023-04-16T10:39:38.532Z,30.77
2023-04-16T10:42:12.921Z,30.64
2023-04-16T10:44:45.284Z,30.99
2023-04-16T10:47:19.021Z,30.40
2023-04-16T10:49:49.556Z,29.95
2023-04-16T10:52:18.612Z,29.66
2023-04-16T10:54:49.056Z,29.47
2023-04-16T10:57:19.393Z,29.72
2023-04-16T10:59:51.984Z,29.63
2023-04-16T11:02:31.250Z,29.33
2023-04-16T11:05:00.228Z,29.66
2023-04-16T11:07:36.090Z,29.63
2023-04-16T11:10:07.876Z,29.88
2023-04-16T11:12:38.773Z,29.38
2023-04-16T11:15:10.479Z,29.21
2023-04-16T11:17:42.721Z,28.94
2023-04-16T11:20:20.519Z,29.16
2023-04-16T11:22:50.470Z,29.19
2023-04-16T11:25:22.961Z,29.23
2023-04-16T11:27:52.672Z,29.23
2023-04-16T11:30:30.564Z,29.72
2023-04-16T11:33:00.910Z,29.70
2023-04-16T11:35:29.581Z,29.81
2023-04-16T11:37:59.124Z,29.95
2023-04-16T11:40:31.860Z,29.71
2023-04-16T11:43:04.376Z,29.97
2023-04-16T11:45:33.032Z,29.86
2023-04-16T11:48:03.091Z,29.79
2023-04-16T11:50:31.832Z,29.44
2023-04-16T11:53:07.091Z,29.22
2023-04-16T11:55:46.017Z,29.71
2023-04-16T11:58:16.516Z,29.56
2023-04-16T12:00:45.995Z,29.62
2023-04-16T12:03:16.494Z,29.76
2023-04-16T12:05:45.266Z,30.22
2023-04-16T12:08:14.199Z,29.97
2023-04-16T12:10:56.097Z,29.33
2023-04-16T12:13:24.720Z,29.45
2023-04-16T12:15:55.048Z,29.52
2023-04-16T12:18:27.367Z,29.71
2023-04-16T12:20:56.123Z,29.18
2023-04-16T12:23:27.058Z,29.45
2023-04-16T12:25:56.348Z,29.35
2023-04-16T12:28:33.718Z,29.42
2023-04-16T12:31:03.458Z,29.13
2023-04-16T12:33:33.669Z,29.20
2023-04-16T12:36:04.734Z,29.38
2023-04-16T12:38:33.351Z,28.97
2023-04-16T12:41:02.498Z,29.15
2023-04-16T12:43:31.321Z,28.83
2023-04-16T12:46:00.789Z,29.00
2023-04-16T12:48:38.676Z,29.10
2023-04-16T12:51:10.303Z,28.79
2023-04-16T12:53:38.961Z,28.97
2023-04-16T12:56:07.983Z,28.90
2023-04-16T12:58:36.785Z,28.94
2023-04-16T13:01:05.373Z,28.86
2023-04-16T13:03:37.330Z,28.93
2023-04-16T13:06:06.635Z,29.03
2023-04-16T13:08:35.426Z,28.87
2023-04-16T13:11:04.575Z,28.72
2023-04-16T13:13:33.179Z,28.60
2023-04-16T13:16:04.182Z,28.79
2023-04-16T13:18:34.236Z,29.16
2023-04-16T13:21:03.131Z,29.13
2023-04-16T13:23:31.968Z,28.72
2023-04-16T13:26:00.733Z,29.15
2023-04-16T13:28:29.398Z,28.93
2023-04-16T13:30:59.045Z,28.78
2023-04-16T13:33:28.262Z,29.13
2023-04-16T13:35:58.363Z,28.74
2023-04-16T13:38:28.331Z,28.85
2023-04-16T13:40:57.555Z,28.40
2023-04-16T13:43:28.467Z,28.49
2023-04-16T13:45:58.340Z,28.71
2023-04-16T13:48:30.195Z,28.82
2023-04-16T13:51:16.602Z,28.70
2023-04-16T13:53:45.998Z,28.81
2023-04-16T13:56:14.612Z,29.01
2023-04-16T13:58:43.534Z,29.06
2023-04-16T14:01:13.044Z,29.05
2023-04-16T14:03:42.102Z,29.37
2023-04-16T14:06:12.857Z,29.04
2023-04-16T14:08:41.626Z,29.11
2023-04-16T14:11:10.346Z,29.02
2023-04-16T14:13:38.986Z,29.12
2023-04-16T14:16:07.918Z,29.29
2023-04-16T14:18:41.102Z,29.71
2023-04-16T14:21:11.156Z,29.39
2023-04-16T14:23:39.813Z,29.42
2023-04-16T14:26:08.493Z,29.58
2023-04-16T14:28:37.281Z,29.58
2023-04-16T14:31:05.890Z,28.99
2023-04-16T14:33:34.582Z,29.27
2023-04-16T14:36:03.531Z,29.25
2023-04-16T14:38:33.690Z,29.00
2023-04-16T14:41:02.389Z,29.48
2023-04-16T14:43:31.078Z,29.26
2023-04-16T14:46:00.035Z,29.32
2023-04-16T14:48:28.784Z,29.52
2023-04-16T14:51:00.355Z,29.20
2023-04-16T14:53:29.872Z,29.48
2023-04-16T14:55:59.896Z,29.62
2023-04-16T14:58:28.736Z,29.86
2023-04-16T15:00:57.515Z,30.27
2023-04-16T15:03:26.517Z,30.50
2023-04-16T15:05:59.337Z,30.64
2023-04-16T15:08:31.836Z,30.79
2023-04-16T15:11:03.745Z,30.92
2023-04-16T15:13:34.738Z,31.13
2023-04-16T15:16:07.093Z,31.06
2023-04-16T15:18:38.189Z,30.87
2023-04-16T15:21:12.729Z,30.78
2023-04-16T15:24:04.397Z,31.02
2023-04-16T15:26:43.523Z,31.03
2023-04-16T15:29:14.993Z,31.53
2023-04-16T15:31:43.766Z,31.70
2023-04-16T15:34:12.481Z,31.77
2023-04-16T15:36:41.166Z,31.80
2023-04-16T15:39:10.334Z,31.82
2023-04-16T15:41:53.333Z,31.93
2023-04-16T15:44:40.773Z,32.09
2023-04-16T15:47:09.712Z,32.22
2023-04-16T15:49:40.417Z,32.15
2023-04-16T15:52:09.735Z,32.12
2023-04-16T15:54:40.234Z,32.19
2023-04-16T15:57:09.034Z,32.62
2023-04-16T15:59:39.251Z,33.25
2023-04-16T16:02:15.724Z,32.91
2023-04-16T16:04:46.346Z,32.87
2023-04-16T16:07:15.851Z,32.62
2023-04-16T16:09:44.655Z,32.85
2023-04-16T16:12:19.041Z,33.02
2023-04-16T16:14:49.519Z,32.92
2023-04-16T16:17:19.190Z,33.21
2023-04-16T16:19:48.091Z,33.14
2023-04-16T16:22:20.532Z,33.59
2023-04-16T16:24:51.043Z,33.34
2023-04-16T16:27:19.860Z,33.41
2023-04-16T16:29:49.917Z,33.69
2023-04-16T16:32:18.680Z,33.73
2023-04-16T16:34:47.313Z,33.74
2023-04-16T16:37:16.390Z,33.84
2023-04-16T16:39:44.980Z,33.83
2023-04-16T16:42:14.186Z,33.93
2023-04-16T16:44:42.742Z,33.86
2023-04-16T16:47:12.723Z,33.81
2023-04-16T16:49:41.331Z,33.81
2023-04-16T16:52:09.911Z,33.74
2023-04-16T16:54:38.573Z,33.64
2023-04-16T16:57:07.183Z,33.66
2023-04-16T16:59:35.847Z,33.69
2023-04-16T17:02:04.511Z,33.70
2023-04-16T17:04:36.822Z,33.74
2023-04-16T17:07:06.399Z,33.69
2023-04-16T17:09:35.123Z,33.66
2023-04-16T17:12:03.830Z,33.62
2023-04-16T17:14:33.118Z,34.12
2023-04-16T17:17:01.845Z,33.85
2023-04-16T17:19:30.519Z,34.05
2023-04-16T17:22:00.948Z,34.35
2023-04-16T17:24:29.673Z,34.08
2023-04-16T17:26:58.562Z,33.95
2023-04-16T17:29:28.346Z,33.88
2023-04-16T17:31:57.281Z,33.94
2023-04-16T17:34:33.805Z,33.97
2023-04-16T17:37:04.972Z,33.86
2023-04-16T17:39:33.689Z,34.04
2023-04-16T17:42:04.027Z,34.25
2023-04-16T17:44:32.778Z,34.42
2023-04-16T17:47:02.235Z,34.59
2023-04-16T17:49:31.543Z,34.57
2023-04-16T17:52:00.222Z,34.63
2023-04-16T17:54:30.266Z,34.48
2023-04-16T17:56:58.905Z,34.82
2023-04-16T17:59:27.557Z,34.89
2023-04-16T18:01:56.737Z,35.00
2023-04-16T18:04:25.663Z,35.10
2023-04-16T18:06:54.430Z,35.36
2023-04-16T18:09:23.148Z,36.08
2023-04-16T18:11:53.167Z,36.57
2023-04-16T18:14:21.760Z,36.76
2023-04-16T18:16:50.872Z,37.03
2023-04-16T18:19:19.508Z,37.27
2023-04-16T18:21:48.363Z,37.27
2023-04-16T18:24:16.930Z,37.26
2023-04-16T18:26:46.991Z,37.55
2023-04-16T18:29:18.152Z,37.69
2023-04-16T18:31:47.422Z,37.87
2023-04-16T18:34:16.115Z,38.14
2023-04-16T18:36:44.711Z,38.18
2023-04-16T18:39:13.376Z,38.39
2023-04-16T18:41:44.700Z,38.77
2023-04-16T18:44:13.362Z,38.35
2023-04-16T18:46:43.623Z,38.34
2023-04-16T18:49:12.870Z,38.15
2023-04-16T18:51:42.368Z,38.36
2023-04-16T18:54:11.041Z,38.47
2023-04-16T18:56:39.788Z,38.52
2023-04-16T18:59:08.563Z,38.62
2023-04-16T19:01:37.313Z,38.67
2023-04-16T19:04:07.657Z,38.57
2023-04-16T19:06:37.214Z,38.76
2023-04-16T19:09:06.208Z,38.98
2023-04-16T19:11:34.879Z,39.08
2023-04-16T19:14:05.419Z,39.08
2023-04-16T19:16:34.076Z,39.22
2023-04-16T19:19:02.710Z,39.11
2023-04-16T19:21:32.733Z,38.97
2023-04-16T19:24:01.418Z,39.39
2023-04-16T19:26:30.163Z,39.37
2023-04-16T19:28:58.854Z,39.40
2023-04-16T19:31:29.669Z,39.48
2023-04-16T19:33:58.395Z,39.14
2023-04-16T19:36:27.275Z,39.74
2023-04-16T19:38:57.218Z,39.57
2023-04-16T19:41:25.953Z,39.72
2023-04-16T19:43:56.109Z,39.75
2023-04-16T19:46:24.843Z,40.17
2023-04-16T19:48:53.478Z,40.00
2023-04-16T19:51:22.130Z,40.18
2023-04-16T19:53:50.870Z,39.82
2023-04-16T19:56:20.911Z,40.03
2023-04-16T19:58:49.639Z,40.00
2023-04-16T20:01:18.348Z,40.05
2023-04-16T20:03:47.101Z,39.95
2023-04-16T20:06:17.488Z,40.08
2023-04-16T20:08:46.253Z,40.22
2023-04-16T20:11:14.869Z,40.34
2023-04-16T20:13:47.472Z,40.55
2023-04-16T20:16:17.446Z,41.03
2023-04-16T20:18:46.269Z,41.20
2023-04-16T20:21:17.418Z,41.16
2023-04-16T20:23:46.690Z,41.41
2023-04-16T20:26:16.721Z,41.58
2023-04-16T20:28:46.895Z,41.46
2023-04-16T20:31:15.640Z,41.60
2023-04-16T20:33:44.254Z,41.70
2023-04-16T20:36:14.721Z,41.97
2023-04-16T20:38:46.140Z,42.03
2023-04-16T20:41:20.369Z,41.88
2023-04-16T20:43:54.911Z,41.90
2023-04-16T20:46:24.367Z,42.20
2023-04-16T20:48:53.453Z,42.37
2023-04-16T20:51:22.113Z,42.40
2023-04-16T20:53:52.193Z,42.48
2023-04-16T20:56:21.006Z,42.36
2023-04-16T20:58:53.181Z,42.54
2023-04-16T21:01:21.829Z,42.76
2023-04-16T21:03:50.637Z,42.57
2023-04-16T21:06:22.532Z,42.70
2023-04-16T21:08:51.238Z,42.93
2023-04-16T21:11:19.949Z,42.72
2023-04-16T21:13:48.500Z,43.70
2023-04-16T21:16:18.630Z,43.48
2023-04-16T21:18:47.320Z,44.16
2023-04-16T21:21:15.954Z,43.93
2023-04-16T21:23:44.612Z,44.33
2023-04-16T21:26:13.224Z,43.93
2023-04-16T21:28:41.881Z,44.01
2023-04-16T21:31:10.540Z,43.61
2023-04-16T21:33:40.637Z,43.60
2023-04-16T21:36:10.182Z,43.43
2023-04-16T21:38:38.892Z,43.56
2023-04-16T21:41:07.567Z,43.85
2023-04-16T21:43:36.236Z,43.87
2023-04-16T21:46:04.868Z,43.59
2023-04-16T21:48:33.509Z,44.08
2023-04-16T21:51:06.701Z,44.44
2023-04-16T21:53:36.944Z,44.99
2023-04-16T21:56:05.818Z,45.09
2023-04-16T21:58:34.370Z,44.63
2023-04-16T22:01:03.062Z,45.23
2023-04-16T22:03:33.557Z,45.21
2023-04-16T22:06:04.259Z,45.73
2023-04-16T22:08:33.275Z,45.56
2023-04-16T22:11:03.804Z,45.68
2023-04-16T22:13:33.359Z,46.26
2023-04-16T22:16:02.532Z,46.18
2023-04-16T22:18:32.957Z,46.32
2023-04-16T22:21:03.810Z,47.04
2023-04-16T22:23:32.645Z,46.96
2023-04-16T22:26:02.767Z,47.36
2023-04-16T22:28:31.500Z,47.17
2023-04-16T22:31:00.124Z,47.85
2023-04-16T22:33:31.715Z,48.80
2023-04-16T22:36:01.352Z,48.64
2023-04-16T22:38:31.425Z,48.23
2023-04-16T22:41:00.072Z,48.87
2023-04-16T22:43:28.806Z,49.21
2023-04-16T22:46:04.871Z,50.23
2023-04-16T22:48:36.326Z,49.84
2023-04-16T22:51:05.570Z,49.88
2023-04-16T22:53:36.824Z,49.77
2023-04-16T22:56:05.714Z,49.94
2023-04-16T22:58:34.329Z,50.35
2023-04-16T23:01:03.225Z,50.53
2023-04-16T23:03:32.235Z,50.57
2023-04-16T23:06:01.079Z,50.45
2023-04-16T23:08:29.699Z,50.86
2023-04-16T23:10:59.796Z,50.45
2023-04-16T23:13:28.350Z,50.74
2023-04-16T23:15:57.083Z,50.89
2023-04-16T23:18:25.885Z,51.48
2023-04-16T23:20:54.989Z,51.23
2023-04-16T23:23:23.597Z,51.15
2023-04-16T23:25:54.426Z,51.05
2023-04-16T23:28:24.473Z,51.33
2023-04-16T23:30:53.840Z,50.61
2023-04-16T23:33:22.756Z,50.62
2023-04-16T23:35:51.454Z,50.73
2023-04-16T23:38:20.139Z,50.52
2023-04-16T23:40:48.723Z,50.47
2023-04-16T23:43:17.372Z,50.26
2023-04-16T23:45:47.404Z,50.42
2023-04-16T23:48:16.060Z,50.49
2023-04-16T23:50:44.675Z,50.61
2023-04-16T23:53:13.271Z,51.08
2023-04-16T23:55:41.946Z,51.33
2023-04-16T23:58:10.628Z,51.80
